Norton Canes, United Kingdom
Current Conditions -  °F | °C
As of 4:50 PM on Friday 28 Nov 2014 (Local Time) from EGBB Reporting Station
Haze Haze  
Wind Chill: 50°   Ceiling: 500
Heat Index: 50°   Visibility: 2.6mi
Dew Point: 48°   Wind: 9mph
Humidity: 94%   Direction: 60°ENE
Pressure: 29.68"   Gusts: NA
Location:  52.67°N, 1.96°W
Report Text: EGBB 281650Z 06008KT 4300 BR BKN005 OVC009 10/09 Q1005
Loading
Personal Weather Stations






























Interactive Weather Map New forecast layout! Learn more

10-Day Weather Forecast

Advertisements
Track Severe Weather on mobile